sensor_id;sensor_type;location;lat;lon;timestamp;pressure;altitude;pressure_sealevel;temperature;humidity
48035;BME280;33812;46.480;6.834;2023-03-03T00:03:18;93610.41;;;20.90;32.57
48035;BME280;33812;46.480;6.834;2023-03-03T00:07:21;93612.72;;;20.92;32.27
48035;BME280;33812;46.480;6.834;2023-03-03T00:11:23;93611.16;;;20.91;32.41
48035;BME280;33812;46.480;6.834;2023-03-03T00:15:26;93608.41;;;20.91;32.19
48035;BME280;33812;46.480;6.834;2023-03-03T00:19:35;93617.91;;;20.90;32.14
48035;BME280;33812;46.480;6.834;2023-03-03T00:23:39;93618.69;;;20.90;32.04
48035;BME280;33812;46.480;6.834;2023-03-03T00:27:42;93612.81;;;20.88;32.06
48035;BME280;33812;46.480;6.834;2023-03-03T00:31:46;93608.09;;;20.89;32.28
48035;BME280;33812;46.480;6.834;2023-03-03T00:35:48;93613.59;;;20.89;32.12
48035;BME280;33812;46.480;6.834;2023-03-03T00:39:50;93607.31;;;20.88;32.04
48035;BME280;33812;46.480;6.834;2023-03-03T00:43:52;93603.31;;;20.89;32.06
48035;BME280;33812;46.480;6.834;2023-03-03T00:47:56;93608.09;;;20.89;31.97
48035;BME280;33812;46.480;6.834;2023-03-03T00:51:58;93613.28;;;20.87;31.95
48035;BME280;33812;46.480;6.834;2023-03-03T00:56:01;93602.22;;;20.87;31.98
48035;BME280;33812;46.480;6.834;2023-03-03T01:00:03;93605.44;;;20.85;32.03
48035;BME280;33812;46.480;6.834;2023-03-03T01:04:06;93610.50;;;20.87;31.82
48035;BME280;33812;46.480;6.834;2023-03-03T01:08:09;93598.69;;;20.86;31.97
48035;BME280;33812;46.480;6.834;2023-03-03T01:12:12;93602.66;;;20.85;31.80
48035;BME280;33812;46.480;6.834;2023-03-03T01:16:14;93611.25;;;20.87;31.92
48035;BME280;33812;46.480;6.834;2023-03-03T01:20:18;93604.97;;;20.87;31.63
48035;BME280;33812;46.480;6.834;2023-03-03T01:24:20;93615.25;;;20.86;31.59
48035;BME280;33812;46.480;6.834;2023-03-03T01:28:21;93607.41;;;20.85;31.49
48035;BME280;33812;46.480;6.834;2023-03-03T01:32:24;93607.41;;;20.85;31.78
48035;BME280;33812;46.480;6.834;2023-03-03T01:36:27;93603.84;;;20.84;31.74
48035;BME280;33812;46.480;6.834;2023-03-03T01:40:30;93604.31;;;20.83;31.77
48035;BME280;33812;46.480;6.834;2023-03-03T01:44:32;93604.31;;;20.83;31.65
48035;BME280;33812;46.480;6.834;2023-03-03T01:56:46;93609.50;;;20.81;31.65
48035;BME280;33812;46.480;6.834;2023-03-03T02:00:52;93603.97;;;20.81;31.56
48035;BME280;33812;46.480;6.834;2023-03-03T02:04:56;93595.38;;;20.78;31.50
48035;BME280;33812;46.480;6.834;2023-03-03T02:08:59;93593.81;;;20.77;31.28
48035;BME280;33812;46.480;6.834;2023-03-03T02:13:05;93599.31;;;20.77;31.43
48035;BME280;33812;46.480;6.834;2023-03-03T02:17:07;93603.66;;;20.78;31.21
48035;BME280;33812;46.480;6.834;2023-03-03T02:21:11;93597.78;;;20.76;31.29
48035;BME280;33812;46.480;6.834;2023-03-03T02:25:19;93595.78;;;20.77;31.43
48035;BME280;33812;46.480;6.834;2023-03-03T02:29:24;93599.31;;;20.77;31.18
48035;BME280;33812;46.480;6.834;2023-03-03T02:33:27;93595.03;;;20.76;31.31
48035;BME280;33812;46.480;6.834;2023-03-03T02:37:29;93598.53;;;20.77;31.32
48035;BME280;33812;46.480;6.834;2023-03-03T02:41:34;93602.19;;;20.74;31.35
48035;BME280;33812;46.480;6.834;2023-03-03T02:45:42;93601.44;;;20.73;31.52
48035;BME280;33812;46.480;6.834;2023-03-03T02:49:44;93597.09;;;20.72;31.49
48035;BME280;33812;46.480;6.834;2023-03-03T02:53:46;93595.91;;;20.73;31.40
48035;BME280;33812;46.480;6.834;2023-03-03T02:57:47;93602.97;;;20.74;31.34
48035;BME280;33812;46.480;6.834;2023-03-03T03:01:51;93605.41;;;20.72;31.21
48035;BME280;33812;46.480;6.834;2023-03-03T03:05:53;93599.88;;;20.72;31.19
48035;BME280;33812;46.480;6.834;2023-03-03T03:09:54;93591.25;;;20.70;31.33
48035;BME280;33812;46.480;6.834;2023-03-03T03:13:56;93594.00;;;20.70;31.14
48035;BME280;33812;46.480;6.834;2023-03-03T03:17:59;93594.44;;;20.69;31.20
48035;BME280;33812;46.480;6.834;2023-03-03T03:22:01;93595.22;;;20.69;31.04
48035;BME280;33812;46.480;6.834;2023-03-03T03:26:04;93595.22;;;20.69;31.06
48035;BME280;33812;46.480;6.834;2023-03-03T03:30:07;93601.97;;;20.68;30.96
48035;BME280;33812;46.480;6.834;2023-03-03T03:34:10;93593.69;;;20.68;30.98
48035;BME280;33812;46.480;6.834;2023-03-03T03:38:13;93603.19;;;20.67;30.97
48035;BME280;33812;46.480;6.834;2023-03-03T03:42:15;93601.97;;;20.68;30.81
48035;BME280;33812;46.480;6.834;2023-03-03T03:46:17;93608.69;;;20.67;30.88
48035;BME280;33812;46.480;6.834;2023-03-03T03:50:20;93611.47;;;20.67;31.07
48035;BME280;33812;46.480;6.834;2023-03-03T03:54:22;93609.91;;;20.66;30.92
48035;BME280;33812;46.480;6.834;2023-03-03T03:58:25;93615.00;;;20.68;30.91
48035;BME280;33812;46.480;6.834;2023-03-03T04:02:26;93620.19;;;20.65;30.94
48035;BME280;33812;46.480;6.834;2023-03-03T04:06:30;93620.19;;;20.65;30.87
48035;BME280;33812;46.480;6.834;2023-03-03T04:10:32;93625.28;;;20.67;30.82
48035;BME280;33812;46.480;6.834;2023-03-03T04:14:33;93633.22;;;20.65;30.72
48035;BME280;33812;46.480;6.834;2023-03-03T04:18:35;93636.41;;;20.63;30.88
48035;BME280;33812;46.480;6.834;2023-03-03T04:22:38;93629.69;;;20.64;30.71
48035;BME280;33812;46.480;6.834;2023-03-03T04:26:41;93619.06;;;20.63;30.69
48035;BME280;33812;46.480;6.834;2023-03-03T04:30:43;93617.97;;;20.60;30.72
48035;BME280;33812;46.480;6.834;2023-03-03T04:34:45;93619.06;;;20.63;30.70
48035;BME280;33812;46.480;6.834;2023-03-03T04:38:48;93612.78;;;20.62;30.52
48035;BME280;33812;46.480;6.834;2023-03-03T04:42:50;93616.75;;;20.61;30.72
48035;BME280;33812;46.480;6.834;2023-03-03T04:46:52;93609.69;;;20.60;30.62
48035;BME280;33812;46.480;6.834;2023-03-03T04:50:53;93618.75;;;20.61;30.79
48035;BME280;33812;46.480;6.834;2023-03-03T04:54:57;93619.50;;;20.61;30.81
48035;BME280;33812;46.480;6.834;2023-03-03T04:58:59;93623.50;;;20.60;30.99
48035;BME280;33812;46.480;6.834;2023-03-03T05:03:00;93625.47;;;20.60;30.75
48035;BME280;33812;46.480;6.834;2023-03-03T05:07:02;93614.41;;;20.60;30.81
48035;BME280;33812;46.480;6.834;2023-03-03T05:11:05;93604.25;;;20.57;30.62
48035;BME280;33812;46.480;6.834;2023-03-03T05:15:07;93618.41;;;20.59;30.88
48035;BME280;33812;46.480;6.834;2023-03-03T05:19:09;93609.78;;;20.57;30.53
48035;BME280;33812;46.480;6.834;2023-03-03T05:23:12;93618.41;;;20.59;30.67
48035;BME280;33812;46.480;6.834;2023-03-03T05:27:16;93626.69;;;20.59;30.60
48035;BME280;33812;46.480;6.834;2023-03-03T05:31:17;93623.59;;;20.57;30.62
48035;BME280;33812;46.480;6.834;2023-03-03T05:35:19;93617.72;;;20.54;30.62
48035;BME280;33812;46.480;6.834;2023-03-03T05:39:21;93624.47;;;20.53;30.47
48035;BME280;33812;46.480;6.834;2023-03-03T05:43:25;93623.25;;;20.54;30.59
48035;BME280;33812;46.480;6.834;2023-03-03T05:47:28;93621.72;;;20.53;30.41
48035;BME280;33812;46.480;6.834;2023-03-03T05:51:30;93623.25;;;20.54;30.39
48035;BME280;33812;46.480;6.834;2023-03-03T05:55:31;93631.88;;;20.57;30.73
48035;BME280;33812;46.480;6.834;2023-03-03T05:59:34;93628.31;;;20.56;30.57
48035;BME280;33812;46.480;6.834;2023-03-03T06:03:36;93633.41;;;20.58;30.82
48035;BME280;33812;46.480;6.834;2023-03-03T06:07:38;93637.28;;;20.60;30.97
48035;BME280;33812;46.480;6.834;2023-03-03T06:11:40;93636.50;;;20.60;31.40
48035;BME280;33812;46.480;6.834;2023-03-03T06:15:44;93627.03;;;20.61;31.72
48035;BME280;33812;46.480;6.834;2023-03-03T06:19:46;93629.69;;;20.64;31.75
48035;BME280;33812;46.480;6.834;2023-03-03T06:23:48;93624.59;;;20.63;32.11
48035;BME280;33812;46.480;6.834;2023-03-03T06:27:50;93635.22;;;20.64;32.32
48035;BME280;33812;46.480;6.834;2023-03-03T06:31:55;93641.16;;;20.63;33.63
48035;BME280;33812;46.480;6.834;2023-03-03T06:35:57;93646.25;;;20.64;32.60
48035;BME280;33812;46.480;6.834;2023-03-03T06:39:58;93651.44;;;20.62;33.50
48035;BME280;33812;46.480;6.834;2023-03-03T06:44:00;93664.31;;;20.52;33.58
48035;BME280;33812;46.480;6.834;2023-03-03T06:48:04;93663.47;;;20.56;32.82
48035;BME280;33812;46.480;6.834;2023-03-03T06:52:11;93663.78;;;20.58;32.74
48035;BME280;33812;46.480;6.834;2023-03-03T06:56:15;93674.81;;;20.58;33.16
48035;BME280;33812;46.480;6.834;2023-03-03T07:00:22;93674.81;;;20.58;33.10
48035;BME280;33812;46.480;6.834;2023-03-03T07:04:29;93683.09;;;20.58;33.09
48035;BME280;33812;46.480;6.834;2023-03-03T07:08:34;93694.59;;;20.56;32.92
48035;BME280;33812;46.480;6.834;2023-03-03T07:12:36;93689.84;;;20.57;32.87
48035;BME280;33812;46.480;6.834;2023-03-03T07:16:38;93698.13;;;20.57;32.75
48035;BME280;33812;46.480;6.834;2023-03-03T07:20:41;93701.69;;;20.57;33.18
48035;BME280;33812;46.480;6.834;2023-03-03T07:24:43;93702.13;;;20.56;32.56
48035;BME280;33812;46.480;6.834;2023-03-03T07:28:52;93707.28;;;20.53;32.13
48035;BME280;33812;46.480;6.834;2023-03-03T07:32:55;93702.56;;;20.54;32.31
48035;BME280;33812;46.480;6.834;2023-03-03T07:37:01;93704.88;;;20.56;32.06
48035;BME280;33812;46.480;6.834;2023-03-03T07:41:11;93707.63;;;20.56;32.27
48035;BME280;33812;46.480;6.834;2023-03-03T07:45:23;93702.13;;;20.56;31.97
48035;BME280;33812;46.480;6.834;2023-03-03T07:49:32;93700.53;;;20.54;31.63
48035;BME280;33812;46.480;6.834;2023-03-03T07:53:37;93700.53;;;20.54;32.06
48035;BME280;33812;46.480;6.834;2023-03-03T07:57:39;93694.28;;;20.54;31.81
48035;BME280;33812;46.480;6.834;2023-03-03T08:01:42;93690.28;;;20.55;31.78
48035;BME280;33812;46.480;6.834;2023-03-03T08:05:46;93691.06;;;20.56;31.76
48035;BME280;33812;46.480;6.834;2023-03-03T08:09:51;93697.78;;;20.54;31.63
48035;BME280;33812;46.480;6.834;2023-03-03T08:13:57;93705.19;;;20.58;31.72
48035;BME280;33812;46.480;6.834;2023-03-03T08:18:00;93692.16;;;20.58;31.62
48035;BME280;33812;46.480;6.834;2023-03-03T08:22:10;93699.66;;;20.58;31.68
48035;BME280;33812;46.480;6.834;2023-03-03T08:26:14;93699.66;;;20.58;31.45
48035;BME280;33812;46.480;6.834;2023-03-03T08:30:16;93700.91;;;20.57;31.77
48035;BME280;33812;46.480;6.834;2023-03-03T08:34:18;93700.47;;;20.58;31.46
48035;BME280;33812;46.480;6.834;2023-03-03T08:38:20;93703.66;;;20.57;31.23
48035;BME280;33812;46.480;6.834;2023-03-03T08:42:24;93706.75;;;20.59;31.56
48035;BME280;33812;46.480;6.834;2023-03-03T08:46:25;93702.78;;;20.60;31.67
48035;BME280;33812;46.480;6.834;2023-03-03T08:50:28;93707.88;;;20.61;31.68
48035;BME280;33812;46.480;6.834;2023-03-03T08:54:30;93705.88;;;20.62;31.88
48035;BME280;33812;46.480;6.834;2023-03-03T08:58:33;93705.88;;;20.62;31.45
48035;BME280;33812;46.480;6.834;2023-03-03T09:02:35;93706.22;;;20.64;31.83
48035;BME280;33812;46.480;6.834;2023-03-03T09:06:37;93712.53;;;20.64;31.93
48035;BME280;33812;46.480;6.834;2023-03-03T09:10:39;93716.06;;;20.65;31.95
48035;BME280;33812;46.480;6.834;2023-03-03T09:14:42;93709.78;;;20.64;31.83
48035;BME280;33812;46.480;6.834;2023-03-03T09:18:44;93718.81;;;20.65;31.92
48035;BME280;33812;46.480;6.834;2023-03-03T09:22:45;93723.56;;;20.64;31.96
48035;BME280;33812;46.480;6.834;2023-03-03T09:26:47;93721.13;;;20.66;31.88
48035;BME280;33812;46.480;6.834;2023-03-03T09:30:57;93718.38;;;20.66;32.14
48035;BME280;33812;46.480;6.834;2023-03-03T09:34:59;93716.84;;;20.65;32.07
48035;BME280;33812;46.480;6.834;2023-03-03T09:39:11;93726.25;;;20.68;32.14
48035;BME280;33812;46.480;6.834;2023-03-03T09:43:20;93716.06;;;20.65;31.98
48035;BME280;33812;46.480;6.834;2023-03-03T09:47:40;93721.56;;;20.65;31.78
48035;BME280;33812;46.480;6.834;2023-03-03T09:52:02;93727.44;;;20.67;32.08
48035;BME280;33812;46.480;6.834;2023-03-03T09:56:12;93721.91;;;20.67;31.82
48035;BME280;33812;46.480;6.834;2023-03-03T10:00:25;93719.59;;;20.65;31.83
48035;BME280;33812;46.480;6.834;2023-03-03T10:04:52;93725.13;;;20.65;31.72
48035;BME280;33812;46.480;6.834;2023-03-03T10:09:27;93729.41;;;20.66;31.99
48035;BME280;33812;46.480;6.834;2023-03-03T10:13:47;93725.13;;;20.65;31.75
48035;BME280;33812;46.480;6.834;2023-03-03T10:18:11;93717.97;;;20.68;31.96
48035;BME280;33812;46.480;6.834;2023-03-03T10:22:24;93723.91;;;20.66;31.95
48035;BME280;33812;46.480;6.834;2023-03-03T10:26:47;93724.69;;;20.67;32.08
48035;BME280;33812;46.480;6.834;2023-03-03T10:31:00;93732.53;;;20.69;32.02
48035;BME280;33812;46.480;6.834;2023-03-03T10:39:55;93726.25;;;20.68;32.73
48035;BME280;33812;46.480;6.834;2023-03-03T10:44:28;93734.84;;;20.70;32.14
48035;BME280;33812;46.480;6.834;2023-03-03T10:48:45;93735.63;;;20.71;32.53
48035;BME280;33812;46.480;6.834;2023-03-03T10:52:56;93741.06;;;20.74;32.41
48035;BME280;33812;46.480;6.834;2023-03-03T10:57:11;93739.19;;;20.71;32.30
48035;BME280;33812;46.480;6.834;2023-03-03T11:01:24;93747.81;;;20.73;32.26
48035;BME280;33812;46.480;6.834;2023-03-03T11:05:36;93742.59;;;20.75;32.34
48035;BME280;33812;46.480;6.834;2023-03-03T11:09:55;93738.66;;;20.76;32.38
48035;BME280;33812;46.480;6.834;2023-03-03T11:14:06;93741.75;;;20.78;32.23
48035;BME280;33812;46.480;6.834;2023-03-03T11:18:22;93744.16;;;20.76;32.27
48035;BME280;33812;46.480;6.834;2023-03-03T11:22:42;93741.75;;;20.78;32.31
48035;BME280;33812;46.480;6.834;2023-03-03T11:26:58;93744.06;;;20.80;32.26
48035;BME280;33812;46.480;6.834;2023-03-03T11:31:12;93740.88;;;20.82;32.05
48035;BME280;33812;46.480;6.834;2023-03-03T11:35:22;93732.94;;;20.84;31.79
48035;BME280;33812;46.480;6.834;2023-03-03T11:39:28;93725.75;;;20.86;32.17
48035;BME280;33812;46.480;6.834;2023-03-03T11:43:33;93725.31;;;20.88;32.23
48035;BME280;33812;46.480;6.834;2023-03-03T11:47:52;93717.78;;;20.88;32.31
48035;BME280;33812;46.480;6.834;2023-03-03T11:52:03;93714.59;;;20.90;32.20
48035;BME280;33812;46.480;6.834;2023-03-03T11:56:20;93716.91;;;20.92;32.21
48035;BME280;33812;46.480;6.834;2023-03-03T12:00:30;93716.91;;;20.92;32.10
48035;BME280;33812;46.480;6.834;2023-03-03T12:04:39;93712.16;;;20.92;32.07
48035;BME280;33812;46.480;6.834;2023-03-03T12:09:00;93705.88;;;20.92;31.91
48035;BME280;33812;46.480;6.834;2023-03-03T12:13:06;93706.66;;;20.92;32.35
48035;BME280;33812;46.480;6.834;2023-03-03T12:17:20;93708.19;;;20.93;32.27
48035;BME280;33812;46.480;6.834;2023-03-03T12:21:37;93706.66;;;20.92;32.07
48035;BME280;33812;46.480;6.834;2023-03-03T12:25:48;93701.91;;;20.93;32.39
48035;BME280;33812;46.480;6.834;2023-03-03T12:30:05;93696.38;;;20.93;32.13
48035;BME280;33812;46.480;6.834;2023-03-03T12:34:18;93703.88;;;20.92;32.36
48035;BME280;33812;46.480;6.834;2023-03-03T12:38:32;93698.34;;;20.92;32.33
48035;BME280;33812;46.480;6.834;2023-03-03T12:42:43;93699.91;;;20.93;32.14
48035;BME280;33812;46.480;6.834;2023-03-03T12:46:56;93686.09;;;20.93;32.09
48035;BME280;33812;46.480;6.834;2023-03-03T12:51:05;93684.53;;;20.92;32.25
48035;BME280;33812;46.480;6.834;2023-03-03T12:55:18;93688.84;;;20.93;32.28
48035;BME280;33812;46.480;6.834;2023-03-03T12:59:29;93693.63;;;20.93;32.16
48035;BME280;33812;46.480;6.834;2023-03-03T13:03:40;93694.03;;;20.91;32.27
48035;BME280;33812;46.480;6.834;2023-03-03T13:07:51;93693.28;;;20.90;32.08
48035;BME280;33812;46.480;6.834;2023-03-03T13:12:26;93688.50;;;20.91;32.13
48035;BME280;33812;46.480;6.834;2023-03-03T13:16:34;93683.75;;;20.92;32.31
48035;BME280;33812;46.480;6.834;2023-03-03T13:20:43;93682.97;;;20.91;31.91
48035;BME280;33812;46.480;6.834;2023-03-03T13:24:57;93687.75;;;20.90;32.23
48035;BME280;33812;46.480;6.834;2023-03-03T13:29:10;93694.03;;;20.91;32.21
48035;BME280;33812;46.480;6.834;2023-03-03T13:33:17;93694.03;;;20.91;32.27
48035;BME280;33812;46.480;6.834;2023-03-03T13:37:23;93684.53;;;20.92;32.49
48035;BME280;33812;46.480;6.834;2023-03-03T13:41:31;93688.50;;;20.91;32.17
48035;BME280;33812;46.480;6.834;2023-03-03T13:45:46;93688.50;;;20.91;32.05
48035;BME280;33812;46.480;6.834;2023-03-03T13:50:02;93687.75;;;20.90;32.01
48035;BME280;33812;46.480;6.834;2023-03-03T13:54:13;93689.72;;;20.90;32.06
48035;BME280;33812;46.480;6.834;2023-03-03T13:58:22;93688.50;;;20.91;32.22
48035;BME280;33812;46.480;6.834;2023-03-03T14:03:02;93671.94;;;20.91;32.24
48035;BME280;33812;46.480;6.834;2023-03-03T14:07:11;93674.69;;;20.91;32.24
48035;BME280;33812;46.480;6.834;2023-03-03T14:11:19;93669.94;;;20.92;32.17
48035;BME280;33812;46.480;6.834;2023-03-03T14:15:25;93672.28;;;20.93;32.17
48035;BME280;33812;46.480;6.834;2023-03-03T14:19:33;93674.28;;;20.93;31.95
48035;BME280;33812;46.480;6.834;2023-03-03T14:23:47;93677.44;;;20.91;32.01
48035;BME280;33812;46.480;6.834;2023-03-03T14:28:00;93676.63;;;20.94;31.90
48035;BME280;33812;46.480;6.834;2023-03-03T14:32:20;93673.09;;;20.94;32.02
48035;BME280;33812;46.480;6.834;2023-03-03T14:36:26;93679.03;;;20.92;31.97
48035;BME280;33812;46.480;6.834;2023-03-03T14:40:31;93679.81;;;20.93;32.09
48035;BME280;33812;46.480;6.834;2023-03-03T14:44:36;93677.78;;;20.93;31.65
48035;BME280;33812;46.480;6.834;2023-03-03T14:48:49;93677.78;;;20.93;31.69
48035;BME280;33812;46.480;6.834;2023-03-03T14:53:04;93669.50;;;20.93;31.80
48035;BME280;33812;46.480;6.834;2023-03-03T14:57:12;93675.03;;;20.93;31.81
48035;BME280;33812;46.480;6.834;2023-03-03T15:01:21;93673.88;;;20.94;31.98
48035;BME280;33812;46.480;6.834;2023-03-03T15:05:24;93671.09;;;20.94;31.68
48035;BME280;33812;46.480;6.834;2023-03-03T15:09:32;93671.09;;;20.94;31.77
48035;BME280;33812;46.480;6.834;2023-03-03T15:13:36;93664.78;;;20.94;31.61
48035;BME280;33812;46.480;6.834;2023-03-03T15:17:40;93671.09;;;20.94;31.72
48035;BME280;33812;46.480;6.834;2023-03-03T15:21:48;93668.34;;;20.94;31.74
48035;BME280;33812;46.480;6.834;2023-03-03T15:25:58;93677.38;;;20.95;31.75
48035;BME280;33812;46.480;6.834;2023-03-03T15:30:10;93667.97;;;20.92;31.75
48035;BME280;33812;46.480;6.834;2023-03-03T15:34:30;93676.63;;;20.94;31.53
48035;BME280;33812;46.480;6.834;2023-03-03T15:38:43;93677.78;;;20.93;31.52
48035;BME280;33812;46.480;6.834;2023-03-03T15:43:02;93676.63;;;20.94;31.51
48035;BME280;33812;46.480;6.834;2023-03-03T15:47:28;93684.13;;;20.94;31.69
48035;BME280;33812;46.480;6.834;2023-03-03T15:51:44;93681.38;;;20.94;31.67
48035;BME280;33812;46.480;6.834;2023-03-03T15:55:57;93681.38;;;20.94;31.38
48035;BME280;33812;46.480;6.834;2023-03-03T16:00:11;93670.31;;;20.94;31.45
48035;BME280;33812;46.480;6.834;2023-03-03T16:04:18;93684.53;;;20.92;31.47
48035;BME280;33812;46.480;6.834;2023-03-03T16:08:23;93692.41;;;20.94;31.60
48035;BME280;33812;46.480;6.834;2023-03-03T16:12:31;93685.31;;;20.93;31.45
48035;BME280;33812;46.480;6.834;2023-03-03T16:16:42;93703.88;;;20.92;31.33
48035;BME280;33812;46.480;6.834;2023-03-03T16:20:54;93696.78;;;20.91;31.16
48035;BME280;33812;46.480;6.834;2023-03-03T16:25:16;93697.13;;;20.93;31.32
48035;BME280;33812;46.480;6.834;2023-03-03T16:29:41;93695.59;;;20.92;32.17
48035;BME280;33812;46.480;6.834;2023-03-03T16:33:51;93703.47;;;20.94;32.62
48035;BME280;33812;46.480;6.834;2023-03-03T16:37:59;93704.25;;;20.94;33.56
48035;BME280;33812;46.480;6.834;2023-03-03T16:42:08;93707.84;;;20.91;33.01
48035;BME280;33812;46.480;6.834;2023-03-03T16:46:21;93714.53;;;20.94;33.44
48035;BME280;33812;46.480;6.834;2023-03-03T16:50:38;93725.13;;;20.95;33.48
48035;BME280;33812;46.480;6.834;2023-03-03T16:54:46;93724.00;;;20.93;33.39
48035;BME280;33812;46.480;6.834;2023-03-03T16:59:05;93733.41;;;20.95;33.84
48035;BME280;33812;46.480;6.834;2023-03-03T17:03:43;93723.59;;;20.94;34.24
48035;BME280;33812;46.480;6.834;2023-03-03T17:08:01;93736.19;;;20.95;34.46
48035;BME280;33812;46.480;6.834;2023-03-03T17:12:17;93748.03;;;20.96;34.32
48035;BME280;33812;46.480;6.834;2023-03-03T17:16:29;93759.50;;;20.94;34.24
48035;BME280;33812;46.480;6.834;2023-03-03T17:20:38;93755.59;;;20.92;34.37
48035;BME280;33812;46.480;6.834;2023-03-03T17:24:51;93761.50;;;20.94;34.26
48035;BME280;33812;46.480;6.834;2023-03-03T17:29:08;93759.81;;;20.96;34.43
48035;BME280;33812;46.480;6.834;2023-03-03T17:33:29;93773.63;;;20.96;34.30
48035;BME280;33812;46.480;6.834;2023-03-03T17:37:40;93768.91;;;20.97;35.82
48035;BME280;33812;46.480;6.834;2023-03-03T17:41:51;93777.63;;;20.95;36.00
48035;BME280;33812;46.480;6.834;2023-03-03T17:45:59;93784.28;;;20.98;36.24
48035;BME280;33812;46.480;6.834;2023-03-03T17:50:11;93786.25;;;20.97;36.64
48035;BME280;33812;46.480;6.834;2023-03-03T17:54:27;93789.81;;;20.98;36.51
48035;BME280;33812;46.480;6.834;2023-03-03T17:58:55;93789.81;;;20.98;36.46
48035;BME280;33812;46.480;6.834;2023-03-03T18:03:22;93805.94;;;20.99;35.99
48035;BME280;33812;46.480;6.834;2023-03-03T18:07:40;93811.47;;;20.99;36.21
48035;BME280;33812;46.480;6.834;2023-03-03T18:11:56;93811.78;;;21.01;36.15
48035;BME280;33812;46.480;6.834;2023-03-03T18:16:11;93814.53;;;21.01;36.63
48035;BME280;33812;46.480;6.834;2023-03-03T18:20:26;93817.31;;;21.01;36.01
48035;BME280;33812;46.480;6.834;2023-03-03T18:24:36;93809.81;;;21.02;36.18
48035;BME280;33812;46.480;6.834;2023-03-03T18:28:46;93815.31;;;21.02;36.10
48035;BME280;33812;46.480;6.834;2023-03-03T18:33:08;93808.25;;;21.01;35.03
48035;BME280;33812;46.480;6.834;2023-03-03T18:37:38;93819.66;;;21.03;35.59
48035;BME280;33812;46.480;6.834;2023-03-03T18:42:03;93816.56;;;21.01;35.68
48035;BME280;33812;46.480;6.834;2023-03-03T18:46:09;93823.63;;;21.02;35.94
48035;BME280;33812;46.480;6.834;2023-03-03T18:54:21;93831.81;;;21.06;35.58
48035;BME280;33812;46.480;6.834;2023-03-03T18:58:37;93831.03;;;21.05;36.69
48035;BME280;33812;46.480;6.834;2023-03-03T19:02:41;93831.91;;;21.02;36.79
48035;BME280;33812;46.480;6.834;2023-03-03T19:07:12;93835.00;;;21.04;36.34
48035;BME280;33812;46.480;6.834;2023-03-03T19:11:33;93836.66;;;21.01;36.53
48035;BME280;33812;46.480;6.834;2023-03-03T19:15:49;93832.69;;;21.02;36.63
48035;BME280;33812;46.480;6.834;2023-03-03T19:20:00;93837.34;;;21.06;36.33
48035;BME280;33812;46.480;6.834;2023-03-03T19:24:08;93842.44;;;21.07;36.55
48035;BME280;33812;46.480;6.834;2023-03-03T19:28:32;93836.13;;;21.07;37.04
48035;BME280;33812;46.480;6.834;2023-03-03T19:32:54;93847.97;;;21.07;39.10
48035;BME280;33812;46.480;6.834;2023-03-03T19:37:10;93838.13;;;21.06;37.84
48035;BME280;33812;46.480;6.834;2023-03-03T19:41:23;93836.13;;;21.07;37.35
48035;BME280;33812;46.480;6.834;2023-03-03T19:45:39;93838.88;;;21.07;37.51
48035;BME280;33812;46.480;6.834;2023-03-03T19:49:55;93849.19;;;21.06;37.21
48035;BME280;33812;46.480;6.834;2023-03-03T19:54:08;93847.59;;;21.05;39.56
48035;BME280;33812;46.480;6.834;2023-03-03T19:58:21;93846.06;;;21.04;37.95
48035;BME280;33812;46.480;6.834;2023-03-03T20:02:34;93848.06;;;21.04;38.56
48035;BME280;33812;46.480;6.834;2023-03-03T20:06:51;93846.84;;;21.05;39.70
48035;BME280;33812;46.480;6.834;2023-03-03T20:11:00;93851.59;;;21.04;39.66
48035;BME280;33812;46.480;6.834;2023-03-03T20:15:10;93848.06;;;21.04;40.21
48035;BME280;33812;46.480;6.834;2023-03-03T20:19:23;93848.84;;;21.04;39.95
48035;BME280;33812;46.480;6.834;2023-03-03T20:23:35;93856.34;;;21.04;39.86
48035;BME280;33812;46.480;6.834;2023-03-03T20:27:46;93853.56;;;21.04;39.48
48035;BME280;33812;46.480;6.834;2023-03-03T20:32:00;93861.44;;;21.05;39.35
48035;BME280;33812;46.480;6.834;2023-03-03T20:36:12;93860.22;;;21.06;39.40
48035;BME280;33812;46.480;6.834;2023-03-03T20:40:23;93859.88;;;21.04;39.51
48035;BME280;33812;46.480;6.834;2023-03-03T20:44:42;93865.41;;;21.04;39.26
48035;BME280;33812;46.480;6.834;2023-03-03T20:49:01;93867.38;;;21.04;39.17
48035;BME280;33812;46.480;6.834;2023-03-03T20:53:12;93864.19;;;21.05;39.47
48035;BME280;33812;46.480;6.834;2023-03-03T20:57:21;93864.63;;;21.04;39.62
48035;BME280;33812;46.480;6.834;2023-03-03T21:01:35;93868.19;;;21.04;39.04
48035;BME280;33812;46.480;6.834;2023-03-03T21:05:55;93872.91;;;21.04;38.89
48035;BME280;33812;46.480;6.834;2023-03-03T21:10:09;93871.38;;;21.02;39.03
48035;BME280;33812;46.480;6.834;2023-03-03T21:14:16;93870.59;;;21.02;38.77
48035;BME280;33812;46.480;6.834;2023-03-03T21:18:22;93862.75;;;21.00;38.47
48035;BME280;33812;46.480;6.834;2023-03-03T21:22:25;93868.25;;;21.00;38.13
48035;BME280;33812;46.480;6.834;2023-03-03T21:26:47;93875.78;;;21.00;37.30
48035;BME280;33812;46.480;6.834;2023-03-03T21:31:10;93870.34;;;20.96;36.89
48035;BME280;33812;46.480;6.834;2023-03-03T21:35:14;93879.84;;;20.95;36.68
48035;BME280;33812;46.480;6.834;2023-03-03T21:39:25;93884.59;;;20.95;36.50
48035;BME280;33812;46.480;6.834;2023-03-03T21:43:34;93890.91;;;20.95;36.63
48035;BME280;33812;46.480;6.834;2023-03-03T21:47:36;93886.59;;;20.94;36.51
48035;BME280;33812;46.480;6.834;2023-03-03T21:51:40;93889.75;;;20.93;36.62
48035;BME280;33812;46.480;6.834;2023-03-03T21:55:44;93896.84;;;20.94;36.25
48035;BME280;33812;46.480;6.834;2023-03-03T21:59:48;93894.50;;;20.92;36.37
48035;BME280;33812;46.480;6.834;2023-03-03T22:03:50;93898.47;;;20.91;36.19
48035;BME280;33812;46.480;6.834;2023-03-03T22:07:52;93898.47;;;20.91;36.30
48035;BME280;33812;46.480;6.834;2023-03-03T22:11:55;93900.47;;;20.90;36.09
48035;BME280;33812;46.480;6.834;2023-03-03T22:15:57;93894.94;;;20.90;36.25